Terminal Aerodrome Forecast
Issued by NWS North Platte, NE

Home | Current Version | Previous Version | Text Only | Print | Product List | Glossary Off
Versions: 1 2 3 4 5 6 7 8 9 10 11 12 13 14 15 16 17 18 19

000
FTUS43 KLBF 160800 AAA
TAFVTN
TAF AMD
KVTN 160826Z 1608/1706 02005KT P6SM BKN060
     FM161200 02006KT P6SM SCT007 OVC015
     FM161900 03010KT 4SM -SHRA OVC025=

USA.gov is the U.S. government's official web portal to all federal, state and local government web resources and services.